Time;durP1;ratioP1;P1;durP2;ratioP2;P2;SDS_P1;SDS_P2;PMS_P1;PMS_P2;Temp;Humidity;BMP_temperature;BMP_pressure;BME280_temperature;BME280_humidity;BME280_pressure;Samples;Min_cycle;Max_cycle;Signal;HPM_P1;HPM_P2
2022/06/09 00:00:21;;;;;;;19.20;13.30;;;487.00;2380.80;;;;;;5096973;28;20023;-80
2022/06/09 00:02:53;;;;;;;15.23;13.35;;;487.00;2380.80;;;;;;5096288;28;20023;-79
2022/06/09 00:05:20;;;;;;;16.27;13.07;;;487.00;2048.00;;;;;;5115294;28;20024;-79
2022/06/09 00:07:48;;;;;;;16.73;12.95;;;487.30;2380.80;;;;;;5115037;28;20473;-79
2022/06/09 00:10:21;;;;;;;16.15;13.30;;;487.00;2380.80;;;;;;5114998;28;20020;-77
2022/06/09 00:12:47;;;;;;;17.45;13.73;;;487.00;2380.80;;;;;;5114765;28;20358;-78
2022/06/09 00:15:13;;;;;;;20.45;14.40;;;487.00;2380.80;;;;;;5096430;28;20035;-78
2022/06/09 00:17:41;;;;;;;18.77;14.02;;;487.00;2380.80;;;;;;5096613;28;20032;-78
2022/06/09 00:20:09;;;;;;;17.13;13.63;;;487.00;2380.80;;;;;;5096597;28;20465;-80
2022/06/09 00:22:35;;;;;;;16.08;13.35;;;487.00;2380.80;;;;;;5096176;28;20030;-77
2022/06/09 00:25:00;;;;;;;16.67;14.13;;;487.00;2380.80;;;;;;5096484;28;20027;-79
2022/06/09 00:27:26;;;;;;;15.70;11.80;;;486.90;2380.80;;;;;;5096349;28;20031;-78
2022/06/09 00:29:52;;;;;;;16.65;12.70;;;486.80;2380.80;;;;;;5096091;28;20035;-79
2022/06/09 00:32:18;;;;;;;18.20;12.75;;;486.80;2380.80;;;;;;5096099;28;20028;-78
2022/06/09 00:34:44;;;;;;;14.02;12.50;;;486.80;2380.80;;;;;;5095988;28;20023;-78
2022/06/09 00:37:09;;;;;;;17.25;13.07;;;486.80;2022.40;;;;;;5096229;28;20063;-78
2022/06/09 00:39:35;;;;;;;17.77;14.45;;;486.80;2252.80;;;;;;5113867;28;20024;-79
2022/06/09 00:42:01;;;;;;;18.48;14.25;;;486.70;2380.80;;;;;;5096260;28;20019;-78
2022/06/09 00:44:29;;;;;;;20.05;14.98;;;486.80;2380.80;;;;;;5096110;28;20491;-78
2022/06/09 00:47:01;;;;;;;15.90;13.45;;;486.80;2380.80;;;;;;5114051;28;20487;-79
2022/06/09 00:49:42;;;;;;;17.25;13.85;;;486.80;2380.80;;;;;;5096180;28;20426;-79
2022/06/09 00:52:10;;;;;;;21.25;15.65;;;486.80;2380.80;;;;;;5096128;28;20050;-78
2022/06/09 00:54:44;;;;;;;18.13;14.20;;;486.80;2380.80;;;;;;5113580;28;20059;-79
2022/06/09 00:57:17;;;;;;;18.42;14.77;;;486.80;2099.20;;;;;;5114241;28;20058;-77
2022/06/09 00:59:47;;;;;;;17.83;14.55;;;486.80;2380.80;;;;;;5114151;28;20047;-79
2022/06/09 01:02:15;;;;;;;14.98;13.38;;;486.80;2380.80;;;;;;5095341;28;20037;-79
2022/06/09 01:04:43;;;;;;;22.85;14.07;;;486.80;2124.80;;;;;;5095907;28;20110;-76
2022/06/09 01:07:13;;;;;;;17.00;13.05;;;486.80;2380.80;;;;;;5113829;28;20066;-79
2022/06/09 01:09:39;;;;;;;15.93;12.23;;;486.80;2355.20;;;;;;5095515;28;20020;-76
2022/06/09 01:12:24;;;;;;;15.73;11.25;;;486.90;2380.80;;;;;;5095520;28;20077;-75
2022/06/09 01:14:51;;;;;;;14.90;10.70;;;486.80;2380.80;;;;;;5095640;28;20051;-77
2022/06/09 01:17:29;;;;;;;13.52;10.57;;;486.80;2022.40;;;;;;5113987;28;20126;-79
2022/06/09 01:20:13;;;;;;;15.18;10.65;;;486.50;2380.80;;;;;;5096014;28;20067;-79
2022/06/09 01:22:42;;;;;;;14.52;10.98;;;486.70;2380.80;;;;;;5095412;28;20028;-76
2022/06/09 01:25:22;;;;;;;17.00;11.00;;;486.80;2380.80;;;;;;5095665;28;20434;-79
2022/06/09 01:27:53;;;;;;;18.15;13.07;;;486.90;2380.80;;;;;;5095765;28;20073;-78
2022/06/09 01:30:41;;;;;;;14.05;11.93;;;487.00;2380.80;;;;;;5096699;28;20026;-76
2022/06/09 01:33:22;;;;;;;13.73;10.23;;;487.00;2380.80;;;;;;5100097;28;20027;-79
2022/06/09 01:36:04;;;;;;;16.02;11.50;;;486.80;2380.80;;;;;;5099490;28;20076;-78
2022/06/09 01:38:30;;;;;;;16.55;11.32;;;486.50;2380.80;;;;;;5118280;28;20516;-76
2022/06/09 01:40:56;;;;;;;14.15;10.85;;;486.70;2380.80;;;;;;5099801;28;20059;-78
2022/06/09 01:43:22;;;;;;;17.70;10.85;;;486.80;2329.60;;;;;;5099228;28;20393;-76
2022/06/09 01:46:03;;;;;;;16.23;11.80;;;486.90;2380.80;;;;;;5117978;28;20108;-78
2022/06/09 01:48:29;;;;;;;18.70;10.65;;;487.00;2380.80;;;;;;5099687;28;20024;-77
2022/06/09 01:50:58;;;;;;;13.45;9.48;;;486.80;2380.80;;;;;;5099172;28;20023;-79
2022/06/09 01:53:33;;;;;;;13.90;9.88;;;486.70;2380.80;;;;;;5098819;28;20027;-77
2022/06/09 01:56:08;;;;;;;13.98;9.27;;;486.50;2380.80;;;;;;5117684;28;20032;-78
2022/06/09 01:58:54;;;;;;;13.68;9.60;;;461.70;2380.80;;;;;;5099144;28;20031;-77
2022/06/09 02:01:24;;;;;;;14.40;9.50;;;486.40;2380.80;;;;;;5117595;28;20030;-80
2022/06/09 02:03:55;;;;;;;14.38;9.57;;;486.50;2380.80;;;;;;5099076;28;20426;-79
2022/06/09 02:06:21;;;;;;;12.38;9.25;;;486.70;2380.80;;;;;;5099151;28;20077;-76
2022/06/09 02:08:48;;;;;;;12.98;9.43;;;486.70;2201.60;;;;;;5099124;28;20024;-77
2022/06/09 02:11:14;;;;;;;10.25;8.10;;;486.70;2380.80;;;;;;5098732;28;20024;-78
2022/06/09 02:13:47;;;;;;;14.15;10.98;;;486.70;2380.80;;;;;;5098930;28;20063;-78
2022/06/09 02:16:17;;;;;;;14.43;9.82;;;486.70;2380.80;;;;;;5098973;28;20057;-79
2022/06/09 02:18:45;;;;;;;17.25;9.07;;;461.70;2380.80;;;;;;5117130;28;20038;-79
2022/06/09 02:21:16;;;;;;;14.70;9.02;;;461.70;2380.80;;;;;;5098791;28;20122;-78
2022/06/09 02:23:43;;;;;;;14.02;8.90;;;486.50;2048.00;;;;;;5098786;28;20023;-78
2022/06/09 02:26:09;;;;;;;14.90;9.55;;;486.60;2380.80;;;;;;5098419;28;20036;-78
2022/06/09 02:28:35;;;;;;;14.27;10.45;;;486.70;2380.80;;;;;;5098769;28;20020;-77
2022/06/09 02:31:02;;;;;;;16.17;9.30;;;486.80;2380.80;;;;;;5098618;28;20052;-78
2022/06/09 02:33:28;;;;;;;15.70;9.32;;;486.70;2380.80;;;;;;5098394;28;20035;-78
2022/06/09 02:35:54;;;;;;;12.52;8.52;;;486.80;2380.80;;;;;;5098540;28;20030;-78
2022/06/09 02:38:21;;;;;;;12.27;8.57;;;486.70;2380.80;;;;;;5116471;28;20015;-77
2022/06/09 02:40:47;;;;;;;9.52;8.23;;;486.80;2380.80;;;;;;5116224;28;20020;-78
2022/06/09 02:43:13;;;;;;;9.70;7.63;;;487.30;2380.80;;;;;;5097435;28;20468;-79
2022/06/09 02:45:40;;;;;;;14.15;8.45;;;486.80;2380.80;;;;;;5097965;28;20019;-78
2022/06/09 02:48:06;;;;;;;12.95;7.72;;;486.40;2380.80;;;;;;5098461;28;20028;-79
2022/06/09 02:50:33;;;;;;;12.00;6.97;;;486.40;2380.80;;;;;;5098259;28;20032;-76
2022/06/09 02:52:59;;;;;;;11.02;8.25;;;486.50;2380.80;;;;;;5098101;28;20418;-79
2022/06/09 02:55:26;;;;;;;11.10;7.90;;;486.40;2380.80;;;;;;5097980;28;20047;-76
2022/06/09 02:57:52;;;;;;;11.45;7.20;;;486.40;2380.80;;;;;;5098027;28;20028;-78
2022/06/09 03:00:18;;;;;;;10.25;8.05;;;461.60;2380.80;;;;;;5097814;28;20114;-77
2022/06/09 03:02:51;;;;;;;13.43;8.10;;;461.50;2380.80;;;;;;5098132;28;20024;-79
2022/06/09 03:05:17;;;;;;;13.23;9.35;;;461.60;2380.80;;;;;;5097770;28;20023;-78
2022/06/09 03:07:43;;;;;;;16.65;9.90;;;461.50;2380.80;;;;;;5097581;28;20055;-79
2022/06/09 03:10:09;;;;;;;17.30;10.70;;;461.50;2380.80;;;;;;5116411;28;20027;-78
2022/06/09 03:12:35;;;;;;;18.17;11.05;;;461.50;2380.80;;;;;;5116199;28;20102;-79
2022/06/09 03:15:02;;;;;;;21.25;12.95;;;461.60;2380.80;;;;;;5097509;28;20180;-79
2022/06/09 03:17:27;;;;;;;18.83;13.65;;;461.60;2099.20;;;;;;5115817;28;20076;-78
2022/06/09 03:19:53;;;;;;;15.05;11.57;;;461.70;2304.00;;;;;;5097771;28;20020;-77
2022/06/09 03:22:19;;;;;;;12.52;9.32;;;486.40;2380.80;;;;;;5115392;28;20483;-79
2022/06/09 03:24:45;;;;;;;14.50;8.32;;;486.40;2380.80;;;;;;5115651;28;20023;-78
2022/06/09 03:27:11;;;;;;;12.20;8.35;;;486.40;2380.80;;;;;;5115800;28;20070;-78
2022/06/09 03:29:37;;;;;;;13.85;8.80;;;486.50;2380.80;;;;;;5100264;27;20384;-76
2022/06/09 03:32:03;;;;;;;13.73;9.05;;;486.60;2380.80;;;;;;5117430;27;20035;-77
2022/06/09 03:34:29;;;;;;;13.00;8.75;;;486.70;2380.80;;;;;;5135436;27;20027;-78
2022/06/09 03:36:54;;;;;;;14.70;9.85;;;486.60;2380.80;;;;;;5117696;27;20023;-80
2022/06/09 03:39:20;;;;;;;15.48;9.85;;;486.50;2380.80;;;;;;5135899;27;20058;-79
2022/06/09 03:41:46;;;;;;;18.48;11.00;;;486.50;2380.80;;;;;;5117504;27;20076;-79
2022/06/09 03:44:12;;;;;;;16.35;10.85;;;486.40;2380.80;;;;;;5117711;27;20031;-77
2022/06/09 03:46:37;;;;;;;16.63;11.05;;;486.40;2380.80;;;;;;5135722;27;20027;-78
2022/06/09 03:49:03;;;;;;;16.65;11.45;;;486.40;2380.80;;;;;;5117329;27;20023;-77
2022/06/09 03:51:29;;;;;;;16.83;9.82;;;486.50;2380.80;;;;;;5117525;27;20034;-77
2022/06/09 03:53:55;;;;;;;18.25;11.25;;;486.50;2380.80;;;;;;5116918;27;20138;-79
2022/06/09 03:56:22;;;;;;;19.73;11.93;;;486.40;2380.80;;;;;;5117117;27;20023;-78
2022/06/09 03:58:48;;;;;;;23.23;12.25;;;461.60;2380.80;;;;;;5117847;27;20087;-78
2022/06/09 04:01:17;;;;;;;18.40;10.43;;;461.60;2380.80;;;;;;5117292;27;20034;-78
2022/06/09 04:03:43;;;;;;;13.25;8.57;;;486.40;2380.80;;;;;;5116964;27;20034;-79
2022/06/09 04:06:21;;;;;;;13.77;9.70;;;461.70;2380.80;;;;;;5117003;27;20041;-78
2022/06/09 04:08:51;;;;;;;10.80;8.18;;;461.60;2380.80;;;;;;5117473;27;20416;-78
2022/06/09 04:11:18;;;;;;;17.08;8.90;;;461.60;2380.80;;;;;;5116806;27;20027;-80
2022/06/09 04:13:44;;;;;;;17.02;10.35;;;486.40;2380.80;;;;;;5117177;27;20023;-77
2022/06/09 04:16:22;;;;;;;15.55;10.05;;;461.60;2380.80;;;;;;5135541;27;20474;-80
2022/06/09 04:18:48;;;;;;;17.75;11.52;;;461.40;2380.80;;;;;;5117048;27;20453;-78
2022/06/09 04:21:14;;;;;;;15.20;10.60;;;461.50;2380.80;;;;;;5135417;27;20023;-78
2022/06/09 04:23:40;;;;;;;16.23;11.18;;;461.40;2329.60;;;;;;5134695;27;20058;-77
2022/06/09 04:26:05;;;;;;;16.15;11.02;;;461.70;2380.80;;;;;;5135223;27;20365;-77
2022/06/09 04:28:31;;;;;;;20.35;12.20;;;486.40;2380.80;;;;;;5116756;27;20031;-79
2022/06/09 04:30:57;;;;;;;17.13;12.40;;;486.50;2380.80;;;;;;5116390;27;20068;-77
2022/06/09 04:33:23;;;;;;;17.30;12.45;;;486.50;2380.80;;;;;;5116700;27;20106;-78
2022/06/09 04:35:48;;;;;;;17.42;10.25;;;486.60;2380.80;;;;;;5135176;27;20023;-80
2022/06/09 04:38:14;;;;;;;17.27;9.75;;;486.40;2380.80;;;;;;5134815;27;20031;-76
2022/06/09 04:40:41;;;;;;;14.73;9.60;;;486.40;2380.80;;;;;;5116546;27;20027;-78
2022/06/09 04:43:10;;;;;;;18.35;11.05;;;486.50;2380.80;;;;;;5116626;27;20023;-78
2022/06/09 04:45:39;;;;;;;17.17;12.15;;;486.50;2380.80;;;;;;5116100;27;20118;-79
2022/06/09 04:48:05;;;;;;;17.50;11.43;;;486.70;2380.80;;;;;;5106336;28;20030;-80
2022/06/09 04:50:31;;;;;;;18.85;10.48;;;486.70;2380.80;;;;;;5096040;28;20118;-79
2022/06/09 04:52:57;;;;;;;23.20;12.45;;;486.70;2380.80;;;;;;5095913;28;20461;-80
2022/06/09 04:55:23;;;;;;;22.08;13.43;;;486.70;2380.80;;;;;;5095891;28;20089;-79
2022/06/09 04:57:50;;;;;;;20.95;12.32;;;486.60;2380.80;;;;;;5096032;28;20118;-80
2022/06/09 05:00:17;;;;;;;18.08;11.82;;;486.50;2380.80;;;;;;5114043;28;20023;-80
2022/06/09 05:02:43;;;;;;;25.00;13.00;;;486.60;2380.80;;;;;;5095969;28;20083;-80
2022/06/09 05:05:21;;;;;;;21.20;13.15;;;486.70;2380.80;;;;;;5095354;28;20028;-79
2022/06/09 05:07:47;;;;;;;25.92;13.20;;;486.80;2380.80;;;;;;5096098;28;20032;-79
2022/06/09 05:10:13;;;;;;;22.15;14.00;;;486.90;2380.80;;;;;;5096036;28;20579;-78
2022/06/09 05:12:39;;;;;;;21.48;14.63;;;486.80;2380.80;;;;;;5114005;28;20020;-80
2022/06/09 05:15:05;;;;;;;25.88;15.95;;;486.70;2380.80;;;;;;5096328;28;20080;-79
2022/06/09 05:17:31;;;;;;;24.75;13.90;;;486.80;2380.80;;;;;;5096031;28;20028;-78
2022/06/09 05:19:57;;;;;;;23.88;15.15;;;486.80;2380.80;;;;;;5095739;28;20023;-78
2022/06/09 05:22:23;;;;;;;23.27;16.25;;;486.80;2380.80;;;;;;5095907;28;20118;-78
2022/06/09 05:24:49;;;;;;;24.98;16.63;;;486.70;2380.80;;;;;;5114619;28;20059;-78
2022/06/09 05:27:14;;;;;;;23.65;16.73;;;486.70;2380.80;;;;;;5114190;28;20028;-79
2022/06/09 05:29:42;;;;;;;22.65;15.88;;;486.60;2380.80;;;;;;5096686;28;20027;-80
2022/06/09 05:32:08;;;;;;;21.45;16.17;;;486.70;2380.80;;;;;;5134627;28;20049;-77
2022/06/09 05:34:34;;;;;;;21.48;15.93;;;486.70;2380.80;;;;;;5135902;28;20026;-77
2022/06/09 05:37:00;;;;;;;22.92;15.40;;;486.80;2380.80;;;;;;5135597;28;20016;-77
2022/06/09 05:44:58;;;;;;;21.58;16.58;;;486.80;2380.80;;;;;;5113658;28;20105;-80
2022/06/09 05:47:24;;;;;;;26.20;17.33;;;486.80;2380.80;;;;;;5113496;28;20042;-80
2022/06/09 05:49:53;;;;;;;23.90;17.17;;;486.80;2380.80;;;;;;5095446;28;20035;-79
2022/06/09 05:52:22;;;;;;;24.05;17.00;;;486.80;2380.80;;;;;;5095330;28;20469;-78
2022/06/09 05:54:49;;;;;;;20.88;17.55;;;486.90;2380.80;;;;;;5112993;28;20108;-79
2022/06/09 05:57:15;;;;;;;26.17;18.35;;;486.90;2380.80;;;;;;5095281;28;20033;-79
2022/06/09 05:59:41;;;;;;;26.13;17.00;;;487.20;2380.80;;;;;;5113880;28;20031;-79
2022/06/09 06:02:08;;;;;;;23.75;17.73;;;487.10;2380.80;;;;;;5095020;28;20027;-79
2022/06/09 06:04:34;;;;;;;26.63;18.65;;;487.30;2380.80;;;;;;5095453;28;20031;-76
2022/06/09 06:07:00;;;;;;;23.77;17.38;;;487.10;2380.80;;;;;;5095374;28;20028;-79
2022/06/09 06:09:26;;;;;;;26.70;17.92;;;487.20;2380.80;;;;;;5095018;28;20125;-78
2022/06/09 06:11:52;;;;;;;26.33;18.92;;;487.00;2380.80;;;;;;5113452;28;20059;-78
2022/06/09 06:14:20;;;;;;;24.88;19.17;;;487.10;2380.80;;;;;;5113489;28;20521;-79
2022/06/09 06:16:46;;;;;;;25.45;20.20;;;487.20;2380.80;;;;;;5096868;28;20123;-78
2022/06/09 06:19:16;;;;;;;27.88;19.50;;;487.20;2380.80;;;;;;5098806;28;20023;-79
2022/06/09 06:21:42;;;;;;;23.05;18.73;;;512.00;2380.80;;;;;;5099016;28;20448;-76
2022/06/09 06:24:09;;;;;;;24.13;18.50;;;512.10;2380.80;;;;;;5116462;28;20445;-77
2022/06/09 06:26:35;;;;;;;22.30;17.65;;;512.00;2380.80;;;;;;5098621;28;20032;-79
2022/06/09 06:29:03;;;;;;;27.00;19.02;;;512.20;2380.80;;;;;;5116691;28;20362;-77
2022/06/09 06:31:29;;;;;;;21.42;18.65;;;512.10;2380.80;;;;;;5098321;28;20077;-77
2022/06/09 06:33:55;;;;;;;20.58;18.13;;;512.20;2380.80;;;;;;5098657;28;20024;-78
2022/06/09 06:36:21;;;;;;;22.60;18.42;;;512.20;2380.80;;;;;;5116658;28;20031;-76
2022/06/09 06:38:48;;;;;;;24.50;19.60;;;512.30;2380.80;;;;;;5117173;28;20023;-79
2022/06/09 06:41:14;;;;;;;28.33;19.73;;;512.20;2380.80;;;;;;5098522;28;20027;-78
2022/06/09 06:43:40;;;;;;;21.73;18.67;;;512.20;2380.80;;;;;;5098011;28;20523;-79
2022/06/09 06:46:05;;;;;;;23.88;19.13;;;512.50;2380.80;;;;;;5098351;28;20036;-79
2022/06/09 06:48:33;;;;;;;23.15;19.77;;;512.60;2380.80;;;;;;5098321;28;20486;-79
2022/06/09 06:50:59;;;;;;;22.65;18.67;;;512.70;2380.80;;;;;;5098090;28;20077;-79
2022/06/09 06:53:25;;;;;;;21.88;18.88;;;512.80;2380.80;;;;;;5098058;28;20419;-77
2022/06/09 06:55:51;;;;;;;25.10;17.92;;;512.90;2380.80;;;;;;5116258;28;20444;-78
2022/06/09 06:58:17;;;;;;;23.13;17.75;;;512.90;2380.80;;;;;;5097972;28;20051;-78
2022/06/09 07:00:43;;;;;;;23.17;18.27;;;537.60;2406.40;;;;;;5098129;28;20396;-78
2022/06/09 07:03:11;;;;;;;25.33;18.90;;;538.00;2406.40;;;;;;5097981;28;20380;-78
2022/06/09 07:05:37;;;;;;;21.52;18.10;;;538.00;2406.40;;;;;;5115928;28;20038;-77
2022/06/09 07:08:04;;;;;;;18.58;16.63;;;538.10;2406.40;;;;;;5116528;28;20024;-77
2022/06/09 07:10:31;;;;;;;24.95;18.17;;;537.90;2406.40;;;;;;5097967;28;20488;-78
2022/06/09 07:12:59;;;;;;;21.42;16.90;;;537.90;2406.40;;;;;;5116134;28;20145;-77
2022/06/09 07:15:24;;;;;;;21.75;17.08;;;538.00;2406.40;;;;;;5097835;28;20027;-78
2022/06/09 07:17:50;;;;;;;25.13;15.20;;;538.30;2406.40;;;;;;5116020;28;20055;-77
2022/06/09 07:20:17;;;;;;;19.45;15.48;;;563.20;2432.00;;;;;;5097407;28;20054;-78
2022/06/09 07:22:43;;;;;;;18.60;13.77;;;563.30;2432.00;;;;;;5097618;28;20031;-77
2022/06/09 07:25:14;;;;;;;24.85;15.07;;;538.50;2406.40;;;;;;5115972;28;20034;-78
2022/06/09 07:27:40;;;;;;;21.55;15.07;;;563.30;2432.00;;;;;;5096589;28;20036;-77
2022/06/09 07:30:07;;;;;;;20.48;15.50;;;563.20;2432.00;;;;;;5097460;28;20028;-78
2022/06/09 07:32:33;;;;;;;16.30;13.77;;;538.40;2406.40;;;;;;5097309;28;20037;-77
2022/06/09 07:34:59;;;;;;;17.27;13.15;;;538.40;2406.40;;;;;;5115772;28;20027;-77
2022/06/09 07:37:25;;;;;;;19.60;13.07;;;538.50;2406.40;;;;;;5097434;28;20080;-77
2022/06/09 07:39:51;;;;;;;18.00;12.48;;;563.50;2432.00;;;;;;5097047;28;20384;-77
2022/06/09 07:42:17;;;;;;;14.43;12.57;;;563.60;2432.00;;;;;;5097413;28;20031;-79
2022/06/09 07:44:43;;;;;;;14.23;12.27;;;563.60;2432.00;;;;;;5115787;28;20050;-79
2022/06/09 07:47:09;;;;;;;14.05;12.00;;;563.90;2432.00;;;;;;5096966;28;20032;-78
2022/06/09 07:49:35;;;;;;;21.77;12.02;;;563.60;2432.00;;;;;;5115156;28;20475;-77
2022/06/09 07:52:01;;;;;;;18.40;11.68;;;563.80;2432.00;;;;;;5097128;28;20036;-77
2022/06/09 07:54:27;;;;;;;17.50;11.32;;;563.80;2432.00;;;;;;5119728;27;20465;-75
2022/06/09 07:56:53;;;;;;;13.50;10.80;;;564.10;2432.00;;;;;;5115890;28;20039;-78
2022/06/09 07:59:20;;;;;;;20.83;11.70;;;564.10;2432.00;;;;;;5115186;28;20027;-77
2022/06/09 08:01:46;;;;;;;17.65;11.48;;;588.80;2432.00;;;;;;5096250;28;20022;-76
2022/06/09 08:04:13;;;;;;;15.43;10.70;;;588.80;2432.00;;;;;;5114971;28;20042;-76
2022/06/09 08:06:39;;;;;;;12.25;9.55;;;589.00;2432.00;;;;;;5115031;28;20043;-77
2022/06/09 08:09:05;;;;;;;12.98;8.70;;;589.40;2432.00;;;;;;5096441;28;20031;-76
2022/06/09 08:11:34;;;;;;;14.40;8.55;;;589.60;2432.00;;;;;;5105408;27;20102;-77
2022/06/09 08:14:02;;;;;;;12.90;8.70;;;614.50;2432.00;;;;;;5103867;28;20123;-77
2022/06/09 08:16:28;;;;;;;11.77;8.60;;;614.50;2432.00;;;;;;5096107;28;20038;-76
2022/06/09 08:18:54;;;;;;;16.40;8.77;;;614.70;2432.00;;;;;;5104808;27;20509;-77
2022/06/09 08:21:20;;;;;;;10.25;7.80;;;614.80;2432.00;;;;;;5098147;27;20051;-75
2022/06/09 08:23:47;;;;;;;11.68;6.45;;;614.90;2432.00;;;;;;5123557;27;20019;-77
2022/06/09 08:26:12;;;;;;;10.23;7.38;;;615.10;2432.00;;;;;;5124031;27;20055;-76
2022/06/09 08:28:38;;;;;;;11.23;7.30;;;615.20;2432.00;;;;;;5104666;27;20062;-76
2022/06/09 08:31:04;;;;;;;14.25;7.10;;;614.90;2432.00;;;;;;5123189;27;20102;-76
2022/06/09 08:33:30;;;;;;;14.10;7.25;;;615.20;2432.00;;;;;;5098994;28;20060;-76
2022/06/09 08:35:56;;;;;;;13.70;6.40;;;640.10;2432.00;;;;;;5096529;28;20119;-76
2022/06/09 08:38:22;;;;;;;14.30;9.60;;;640.30;2432.00;;;;;;5097753;28;20085;-76
2022/06/09 08:40:57;;;;;;;8.20;6.50;;;640.30;2432.00;;;;;;5095211;28;20110;-76
2022/06/09 08:43:37;;;;;;;20.15;7.65;;;640.50;2432.00;;;;;;5095660;28;20035;-75
2022/06/09 08:46:19;;;;;;;10.95;6.40;;;640.60;2432.00;;;;;;5114167;28;20035;-75
2022/06/09 08:48:45;;;;;;;;;;;640.60;2432.00;;;;;;5096485;28;20027;-75
2022/06/09 08:51:18;;;;;;;9.65;6.50;;;640.80;2432.00;;;;;;5095736;28;19904;-76
2022/06/09 08:53:59;;;;;;;12.60;6.35;;;665.60;2432.00;;;;;;5095763;28;20134;-75
2022/06/09 08:56:30;;;;;;;9.00;6.03;;;665.70;2432.00;;;;;;5113935;28;20077;-77
2022/06/09 08:59:04;;;;;;;12.88;5.68;;;665.90;2432.00;;;;;;5113995;28;20482;-78
2022/06/09 09:01:40;;;;;;;10.77;4.53;;;666.30;2432.00;;;;;;5096062;28;20244;-75
2022/06/09 09:04:32;;;;;;;7.35;4.60;;;666.40;2432.00;;;;;;5113907;28;20019;-76
2022/06/09 09:07:04;;;;;;;16.05;5.45;;;691.20;2432.00;;;;;;5117678;27;20031;-76
2022/06/09 09:09:30;;;;;;;;;;;691.30;2432.00;;;;;;5119483;27;20030;-77
2022/06/09 09:12:41;;;;;;;9.38;4.95;;;691.40;2432.00;;;;;;5095591;28;19903;-77
2022/06/09 09:15:16;;;;;;;9.13;4.65;;;691.50;2432.00;;;;;;4994957;28;20048;-77
2022/06/09 09:17:56;;;;;;;9.10;5.00;;;691.20;2432.00;;;;;;4994669;28;20053;-78
2022/06/09 09:20:30;;;;;;;11.68;5.38;;;691.30;2432.00;;;;;;5062476;28;20101;-77
2022/06/09 09:23:37;;;;;;;10.93;4.60;;;691.20;2432.00;;;;;;5095677;28;20024;-75
2022/06/09 09:26:15;;;;;;;7.82;4.32;;;691.30;2432.00;;;;;;5070372;28;20047;-76
2022/06/09 09:28:49;;;;;;;9.23;4.90;;;691.60;2432.00;;;;;;5116110;28;20028;-77
2022/06/09 09:31:47;;;;;;;7.57;4.13;;;691.90;2432.00;;;;;;5134197;28;20023;-76
2022/06/09 09:34:35;;;;;;;8.63;4.18;;;692.10;2432.00;;;;;;5092990;28;20070;-77
2022/06/09 09:37:32;;;;;;;6.10;3.55;;;716.90;2432.00;;;;;;5134132;28;20032;-79
2022/06/09 09:40:10;;;;;;;12.75;4.95;;;717.10;2432.00;;;;;;5105009;28;20039;-79
2022/06/09 09:42:38;;;;;;;9.18;4.07;;;717.20;2432.00;;;;;;5115754;28;20083;-79
2022/06/09 09:45:22;;;;;;;9.88;4.18;;;717.20;2432.00;;;;;;5133757;28;20041;-78
2022/06/09 09:47:54;;;;;;;7.80;4.32;;;691.90;2432.00;;;;;;5115806;28;20126;-79
2022/06/09 09:50:51;;;;;;;11.32;4.35;;;691.70;2432.00;;;;;;5116100;27;20375;-78
2022/06/09 09:53:32;;;;;;;8.15;4.30;;;691.50;2432.00;;;;;;5118954;27;20027;-77
2022/06/09 09:56:15;;;;;;;6.63;4.82;;;691.30;2432.00;;;;;;5138292;27;20023;-77
2022/06/09 09:59:03;;;;;;;8.98;4.88;;;666.50;2432.00;;;;;;5119807;27;20425;-77
2022/06/09 10:08:35;;;;;;;10.45;5.43;;;665.90;2432.00;;;;;;5119444;27;20422;-78
2022/06/09 10:10:16;;;;;;;9.90;5.97;;;665.60;2432.00;;;;;;5138139;27;20083;-79
2022/06/09 10:12:44;;;;;;;11.52;5.97;;;665.60;2432.00;;;;;;5119516;27;20424;-78
2022/06/09 10:15:10;;;;;;;11.35;5.80;;;665.60;2432.00;;;;;;5119158;27;20118;-76
2022/06/09 10:17:48;;;;;;;10.07;5.32;;;665.60;2432.00;;;;;;5119345;27;20061;-79
2022/06/09 10:20:14;;;;;;;12.98;9.25;;;665.60;2432.00;;;;;;5119233;27;20173;-79
2022/06/09 10:22:43;;;;;;;11.68;4.88;;;665.60;2432.00;;;;;;5137443;27;20448;-79
2022/06/09 10:25:23;;;;;;;11.20;4.70;;;640.80;2432.00;;;;;;5137390;27;20015;-80
2022/06/09 10:27:55;;;;;;;11.52;4.40;;;640.60;2432.00;;;;;;5118825;27;20035;-78
2022/06/09 10:30:26;;;;;;;;;;;640.60;2432.00;;;;;;5119551;27;20027;-78
2022/06/09 10:32:58;;;;;;;9.20;5.15;;;640.50;2432.00;;;;;;5119149;27;20384;-79
2022/06/09 10:35:31;;;;;;;10.05;5.45;;;640.60;2432.00;;;;;;5118965;27;20035;-78
2022/06/09 10:38:06;;;;;;;10.95;5.95;;;640.50;2432.00;;;;;;5118701;27;20042;-78
2022/06/09 10:40:54;;;;;;;9.85;6.13;;;640.60;2432.00;;;;;;5118892;27;20046;-79
2022/06/09 10:43:28;;;;;;;14.80;6.15;;;640.50;2432.00;;;;;;5137172;27;20081;-78
2022/06/09 10:46:14;;;;;;;17.17;6.75;;;640.60;2432.00;;;;;;5137193;27;20023;-75
2022/06/09 10:55:26;;;;;;;8.90;5.97;;;665.60;2432.00;;;;;;5137273;27;20514;-76
2022/06/09 10:58:14;;;;;;;12.68;5.35;;;665.60;2432.00;;;;;;5099290;27;20039;-75
2022/06/09 11:00:45;;;;;;;10.45;5.10;;;665.60;2432.00;;;;;;5118498;27;20065;-75
2022/06/09 11:03:25;;;;;;;8.27;4.78;;;665.90;2432.00;;;;;;5117117;27;20034;-76
2022/06/09 11:06:11;;;;;;;8.30;4.78;;;665.90;2432.00;;;;;;5118396;27;20023;-75
2022/06/09 11:08:52;;;;;;;7.05;4.05;;;665.90;2432.00;;;;;;5118336;27;20033;-75
2022/06/09 11:11:55;;;;;;;7.78;4.25;;;691.20;2432.00;;;;;;5118033;27;20469;-76
2022/06/09 11:14:45;;;;;;;8.48;3.95;;;691.80;2432.00;;;;;;5118188;27;20027;-78
2022/06/09 11:17:37;;;;;;;7.43;4.53;;;691.70;2432.00;;;;;;5118004;27;20038;-75
2022/06/09 11:20:15;;;;;;;7.63;3.45;;;716.80;2432.00;;;;;;5096676;27;20130;-78
2022/06/09 11:23:02;;;;;;;8.60;3.40;;;717.20;2432.00;;;;;;5118137;27;20031;-75
2022/06/09 11:26:06;;;;;;;9.73;3.67;;;717.10;2432.00;;;;;;5114276;28;20024;-80
2022/06/09 11:29:06;;;;;;;7.63;3.50;;;716.80;2432.00;;;;;;5064869;28;20054;-77
2022/06/09 11:31:35;;;;;;;7.95;3.95;;;691.80;2432.00;;;;;;5115295;28;20023;-77
2022/06/09 11:34:24;;;;;;;8.38;3.55;;;691.70;2432.00;;;;;;5097481;28;20047;-79
2022/06/09 11:36:55;;;;;;;7.45;3.33;;;691.40;2432.00;;;;;;5084170;28;20032;-75
2022/06/09 11:39:47;;;;;;;6.50;4.07;;;691.40;2432.00;;;;;;5097178;28;20076;-77
2022/06/09 11:42:38;;;;;;;8.02;4.20;;;691.40;2432.00;;;;;;5097377;28;20046;-78
2022/06/09 11:45:28;;;;;;;9.90;6.00;;;692.00;2432.00;;;;;;5115561;28;20027;-78
2022/06/09 11:47:57;;;;;;;7.57;4.05;;;717.10;2432.00;;;;;;5115087;28;20030;-77
2022/06/09 11:50:28;;;;;;;4.95;2.53;;;717.50;2432.00;;;;;;5097112;28;20076;-77
2022/06/09 11:52:57;;;;;;;6.80;2.45;;;742.40;2278.40;;;;;;5096882;28;20024;-76
2022/06/09 11:58:34;;;;;;;8.00;2.30;;;742.80;2022.40;;;;;;5115108;28;20066;-78
2022/06/09 12:01:18;;;;;;;4.50;2.28;;;743.30;1996.80;;;;;;5097036;28;20362;-77
2022/06/09 12:03:54;;;;;;;5.00;2.20;;;768.10;1894.40;;;;;;5096911;28;20023;-78
2022/06/09 12:06:50;;;;;;;4.78;1.80;;;768.00;1817.60;;;;;;5114595;28;20427;-76
2022/06/09 12:09:41;;;;;;;4.85;2.03;;;768.30;1792.00;;;;;;5096747;28;20027;-78
2022/06/09 12:12:42;;;;;;;5.70;1.67;;;768.50;1817.60;;;;;;5096477;28;20024;-76
2022/06/09 12:15:11;;;;;;;11.20;2.90;;;768.10;1817.60;;;;;;5095345;27;20041;-78
2022/06/09 12:17:51;;;;;;;5.00;2.22;;;768.00;1920.00;;;;;;5122920;27;20027;-80
2022/06/09 12:20:47;;;;;;;10.40;4.85;;;768.00;1894.40;;;;;;5096222;28;20024;-76
2022/06/09 12:23:49;;;;;;;7.65;3.30;;;768.50;1894.40;;;;;;5096668;28;20028;-76
2022/06/09 12:26:16;;;;;;;5.43;2.87;;;768.80;1843.20;;;;;;5074645;28;20043;-78
2022/06/09 12:28:57;;;;;;;5.90;2.80;;;768.50;1817.60;;;;;;5096291;28;20149;-79
2022/06/09 12:31:28;;;;;;;6.63;3.13;;;768.40;1817.60;;;;;;5096507;28;20032;-79
2022/06/09 12:34:11;;;;;;;6.90;2.60;;;768.40;1817.60;;;;;;5096104;28;20023;-78
2022/06/09 12:36:57;;;;;;;8.43;2.53;;;768.70;1843.20;;;;;;5114397;28;20116;-79
2022/06/09 12:39:28;;;;;;;5.20;2.38;;;793.70;1868.80;;;;;;5114743;28;20023;-80
2022/06/09 12:41:56;;;;;;;6.40;2.40;;;793.60;1843.20;;;;;;5095994;28;20023;-78
2022/06/09 12:44:22;;;;;;;8.68;3.22;;;;;;;;;;5096185;28;20114;-80
2022/06/09 12:47:03;;;;;;;5.47;2.97;;;794.00;1792.00;;;;;;5096061;28;20043;-78